createdAt,value
2022-11-19T00:01:11.283Z,2.75
2022-11-19T00:03:39.499Z,3.08
2022-11-19T00:06:10.421Z,3.60
2022-11-19T00:08:37.725Z,2.10
2022-11-19T00:11:11.387Z,8.18
2022-11-19T00:13:42.870Z,2.22
2022-11-19T00:16:12.959Z,2.60
2022-11-19T00:18:41.007Z,3.10
2022-11-19T00:21:12.852Z,2.80
2022-11-19T00:23:40.268Z,3.45
2022-11-19T00:26:12.503Z,2.55
2022-11-19T00:28:39.990Z,3.08
2022-11-19T00:31:14.437Z,2.28
2022-11-19T00:33:43.968Z,3.30
2022-11-19T00:36:12.855Z,2.53
2022-11-19T00:38:39.640Z,3.08
2022-11-19T00:41:06.835Z,2.80
2022-11-19T00:43:52.527Z,2.70
2022-11-19T00:46:29.075Z,3.22
2022-11-19T00:48:57.802Z,2.15
2022-11-19T00:51:27.372Z,3.03
2022-11-19T00:53:54.556Z,2.95
2022-11-19T00:56:23.819Z,3.28
2022-11-19T00:58:51.410Z,2.40
2022-11-19T01:01:20.546Z,2.42
2022-11-19T01:03:47.661Z,2.63
2022-11-19T01:06:19.104Z,3.08
2022-11-19T01:08:47.609Z,3.45
2022-11-19T01:11:21.752Z,2.50
2022-11-19T01:13:49.133Z,2.75
2022-11-19T01:16:19.592Z,3.00
2022-11-19T01:18:48.863Z,2.60
2022-11-19T01:21:16.986Z,2.42
2022-11-19T01:23:44.952Z,3.53
2022-11-19T01:26:12.960Z,3.60
2022-11-19T01:28:39.929Z,3.13
2022-11-19T01:31:07.922Z,2.30
2022-11-19T01:33:35.677Z,2.42
2022-11-19T01:36:06.123Z,2.97
2022-11-19T01:38:33.365Z,3.30
2022-11-19T01:41:00.596Z,2.45
2022-11-19T01:44:04.824Z,3.30
2022-11-19T01:46:36.814Z,2.90
2022-11-19T01:49:12.985Z,3.00
2022-11-19T01:52:00.657Z,2.55
2022-11-19T01:54:33.639Z,2.60
2022-11-19T01:57:06.389Z,2.55
2022-11-19T01:59:33.326Z,2.72
2022-11-19T02:02:00.152Z,3.65
2022-11-19T02:04:27.821Z,2.70
2022-11-19T02:06:55.280Z,2.30
2022-11-19T02:09:22.576Z,2.42
2022-11-19T02:12:07.551Z,2.10
2022-11-19T02:14:56.515Z,2.60
2022-11-19T02:17:38.435Z,3.22
2022-11-19T02:20:17.028Z,2.25
2022-11-19T02:22:56.039Z,3.00
2022-11-19T02:26:00.306Z,2.40
2022-11-19T02:29:21.045Z,2.70
2022-11-19T02:32:02.118Z,2.65
2022-11-19T02:34:40.135Z,2.78
2022-11-19T02:37:18.648Z,2.80
2022-11-19T02:39:54.595Z,2.80
2022-11-19T02:42:32.338Z,2.40
2022-11-19T02:45:06.536Z,4.85
2022-11-19T02:47:40.114Z,3.57
2022-11-19T02:50:18.750Z,4.13
2022-11-19T02:52:46.914Z,2.50
2022-11-19T02:55:19.674Z,2.60
2022-11-19T02:57:51.842Z,2.30
2022-11-19T03:00:37.714Z,2.70
2022-11-19T03:03:39.907Z,2.67
2022-11-19T03:06:12.842Z,2.22
2022-11-19T03:08:39.731Z,2.05
2022-11-19T03:11:06.418Z,2.30
2022-11-19T03:14:37.079Z,3.63
2022-11-19T03:17:15.774Z,2.47
2022-11-19T03:20:12.897Z,2.28
2022-11-19T03:22:49.957Z,2.15
2022-11-19T03:25:31.817Z,2.92
2022-11-19T03:28:04.530Z,2.30
2022-11-19T03:30:31.861Z,2.72
2022-11-19T03:33:06.251Z,2.72
2022-11-19T03:35:40.849Z,3.40
2022-11-19T03:38:12.536Z,3.00
2022-11-19T03:40:40.773Z,2.70
2022-11-19T03:43:10.100Z,2.90
2022-11-19T03:45:42.779Z,4.38
2022-11-19T03:48:11.811Z,2.90
2022-11-19T03:50:47.822Z,3.40
2022-11-19T03:53:15.307Z,2.50
2022-11-19T03:55:52.797Z,3.65
2022-11-19T03:58:19.506Z,3.72
2022-11-19T04:00:46.267Z,5.28
2022-11-19T04:03:12.930Z,3.72
2022-11-19T04:05:40.206Z,3.60
2022-11-19T04:08:07.034Z,3.30
2022-11-19T04:10:33.780Z,2.15
2022-11-19T04:13:00.559Z,2.35
2022-11-19T04:15:27.317Z,3.17
2022-11-19T04:17:54.399Z,5.47
2022-11-19T04:20:21.455Z,4.20
2022-11-19T04:22:51.376Z,3.70
2022-11-19T04:25:18.113Z,4.40
2022-11-19T04:27:47.567Z,4.43
2022-11-19T04:30:15.239Z,5.75
2022-11-19T04:32:42.746Z,7.55
2022-11-19T04:35:09.567Z,8.23
2022-11-19T04:37:36.422Z,7.47
2022-11-19T04:40:03.955Z,8.77
2022-11-19T04:42:30.639Z,7.60
2022-11-19T04:44:57.291Z,7.32
2022-11-19T04:47:23.927Z,7.88
2022-11-19T04:49:50.518Z,8.00
2022-11-19T04:52:17.142Z,7.22
2022-11-19T04:54:44.040Z,8.48
2022-11-19T04:57:10.728Z,10.02
2022-11-19T04:59:37.358Z,8.48
2022-11-19T05:02:04.020Z,4.85
2022-11-19T05:04:30.705Z,5.78
2022-11-19T05:06:57.432Z,4.53
2022-11-19T05:09:24.260Z,4.90
2022-11-19T05:11:50.908Z,5.18
2022-11-19T05:14:17.565Z,8.23
2022-11-19T05:16:44.214Z,5.97
2022-11-19T05:19:10.829Z,7.78
2022-11-19T05:21:37.507Z,6.47
2022-11-19T05:24:04.359Z,12.60
2022-11-19T05:26:31.079Z,16.63
2022-11-19T05:28:58.255Z,14.30
2022-11-19T05:31:24.984Z,16.52
2022-11-19T05:33:51.669Z,26.33
2022-11-19T05:36:18.528Z,49.28
2022-11-19T05:38:45.283Z,26.85
2022-11-19T05:41:12.014Z,32.17
2022-11-19T05:43:38.654Z,32.97
2022-11-19T05:46:05.516Z,25.17
2022-11-19T05:48:32.147Z,25.65
2022-11-19T05:50:58.831Z,22.98
2022-11-19T05:53:25.630Z,30.00
2022-11-19T05:55:52.349Z,30.27
2022-11-19T05:58:19.018Z,28.48
2022-11-19T06:00:45.705Z,30.38
2022-11-19T06:03:12.476Z,29.80
2022-11-19T06:05:40.740Z,28.35
2022-11-19T06:08:07.820Z,28.80
2022-11-19T06:10:34.577Z,49.92
2022-11-19T06:13:01.496Z,31.08
2022-11-19T06:15:28.208Z,35.13
2022-11-19T06:17:56.745Z,24.90
2022-11-19T06:20:23.505Z,19.52
2022-11-19T06:22:51.751Z,20.95
2022-11-19T06:25:18.787Z,20.85
2022-11-19T06:27:45.525Z,19.55
2022-11-19T06:30:13.824Z,12.95
2022-11-19T06:32:40.953Z,19.55
2022-11-19T06:35:07.926Z,21.05
2022-11-19T06:37:34.579Z,20.17
2022-11-19T06:40:02.180Z,9.00
2022-11-19T06:42:38.076Z,17.05
2022-11-19T06:45:15.844Z,16.65
2022-11-19T06:47:43.035Z,16.02
2022-11-19T06:50:10.938Z,15.05
2022-11-19T06:52:38.039Z,12.30
2022-11-19T06:55:05.183Z,23.08
2022-11-19T06:57:32.019Z,20.88
2022-11-19T06:59:58.688Z,2.15
2022-11-19T07:02:25.381Z,17.70
2022-11-19T07:04:52.164Z,3.60
2022-11-19T07:07:18.950Z,23.80
2022-11-19T07:09:45.735Z,23.25
2022-11-19T07:12:12.462Z,41.08
2022-11-19T07:14:39.148Z,9.18
2022-11-19T07:17:06.259Z,11.48
2022-11-19T07:19:33.075Z,9.10
2022-11-19T07:21:59.924Z,22.65
2022-11-19T07:24:26.807Z,64.07
2022-11-19T07:26:53.707Z,16.90
2022-11-19T07:29:31.217Z,6.03
2022-11-19T07:31:57.947Z,5.35
2022-11-19T07:34:24.909Z,1.92
2022-11-19T07:36:51.521Z,3.50
2022-11-19T07:39:18.714Z,2.30
2022-11-19T07:42:04.286Z,2.13
2022-11-19T07:46:58.026Z,2.58
2022-11-19T07:49:26.397Z,3.47
2022-11-19T07:51:54.016Z,2.05
2022-11-19T07:54:20.960Z,2.30
2022-11-19T07:56:47.582Z,2.33
2022-11-19T07:59:14.267Z,2.38
2022-11-19T08:01:43.549Z,2.17
2022-11-19T08:04:10.538Z,1.50
2022-11-19T08:06:37.568Z,3.40
2022-11-19T08:09:05.195Z,1.70
2022-11-19T08:11:32.158Z,3.70
2022-11-19T08:14:02.332Z,2.95
2022-11-19T08:16:47.906Z,2.20
2022-11-19T08:19:17.122Z,2.20
2022-11-19T08:21:46.521Z,4.28
2022-11-19T08:24:14.604Z,3.10
2022-11-19T08:26:43.130Z,2.60
2022-11-19T08:29:15.970Z,1.90
2022-11-19T08:31:45.301Z,1.17
2022-11-19T08:34:12.158Z,4.93
2022-11-19T08:36:38.848Z,1.45
2022-11-19T08:39:06.795Z,1.27
2022-11-19T08:41:52.700Z,14.23
2022-11-19T08:44:20.427Z,7.07
2022-11-19T08:46:47.493Z,10.05
2022-11-19T08:49:14.533Z,4.28
2022-11-19T08:51:41.352Z,5.28
2022-11-19T08:54:08.434Z,6.70
2022-11-19T08:56:35.150Z,1.75
2022-11-19T08:59:03.154Z,1.30
2022-11-19T09:01:30.741Z,2.03
2022-11-19T09:03:57.704Z,1.27
2022-11-19T09:06:24.569Z,1.60
2022-11-19T09:08:51.589Z,2.20
2022-11-19T09:11:20.774Z,1.50
2022-11-19T09:13:47.745Z,2.28
2022-11-19T09:16:14.643Z,5.88
2022-11-19T09:18:42.468Z,8.13
2022-11-19T09:21:11.241Z,1.35
2022-11-19T09:23:38.875Z,13.02
2022-11-19T09:26:08.561Z,13.98
2022-11-19T09:28:35.623Z,2.75
2022-11-19T09:31:07.373Z,1.63
2022-11-19T09:33:36.616Z,1.65
2022-11-19T09:36:03.683Z,4.68
2022-11-19T09:38:35.243Z,2.10
2022-11-19T09:41:47.092Z,6.18
2022-11-19T09:44:31.308Z,2.05
2022-11-19T09:47:26.443Z,1.75
2022-11-19T09:50:12.397Z,11.98
2022-11-19T09:52:48.156Z,2.10
2022-11-19T09:55:26.689Z,5.32
2022-11-19T09:57:56.308Z,1.70
2022-11-19T10:00:27.176Z,2.53
2022-11-19T10:02:54.986Z,1.38
2022-11-19T10:05:29.006Z,2.50
2022-11-19T10:08:25.725Z,3.22
2022-11-19T10:11:14.175Z,1.70
2022-11-19T10:13:57.239Z,4.25
2022-11-19T10:16:36.458Z,8.35
2022-11-19T10:19:27.923Z,8.77
2022-11-19T10:22:03.998Z,3.00
2022-11-19T10:24:45.436Z,1.60
2022-11-19T10:27:35.443Z,1.67
2022-11-19T10:30:06.457Z,1.00
2022-11-19T10:32:41.157Z,0.88
2022-11-19T10:35:24.879Z,0.90
2022-11-19T10:38:03.806Z,1.50
2022-11-19T10:40:40.753Z,2.30
2022-11-19T10:43:23.638Z,2.20
2022-11-19T10:45:50.910Z,1.38
2022-11-19T10:48:23.408Z,1.20
2022-11-19T10:50:51.271Z,1.27
2022-11-19T10:53:31.559Z,1.90
2022-11-19T10:56:03.397Z,3.35
2022-11-19T10:58:39.352Z,2.10
2022-11-19T11:01:15.997Z,1.13
2022-11-19T11:04:02.920Z,1.95
2022-11-19T11:06:59.271Z,3.28
2022-11-19T11:09:34.948Z,1.75
2022-11-19T11:12:35.750Z,1.45
2022-11-19T11:15:23.884Z,1.67
2022-11-19T11:18:10.087Z,2.95
2022-11-19T11:20:38.763Z,1.60
2022-11-19T11:23:18.313Z,1.50
2022-11-19T11:26:05.534Z,1.20
2022-11-19T11:28:33.342Z,1.42
2022-11-19T11:31:00.034Z,2.42
2022-11-19T11:33:32.066Z,1.35
2022-11-19T11:36:09.049Z,1.70
2022-11-19T11:38:48.136Z,1.33
2022-11-19T11:44:19.169Z,1.55
2022-11-19T11:46:50.460Z,1.70
2022-11-19T11:49:28.685Z,0.95
2022-11-19T11:52:15.699Z,2.42
2022-11-19T11:55:12.927Z,2.17
2022-11-19T11:58:04.061Z,1.55
2022-11-19T12:00:35.483Z,1.40
2022-11-19T12:03:05.039Z,2.10
2022-11-19T12:05:37.758Z,1.95
2022-11-19T12:08:06.691Z,1.63
2022-11-19T12:10:36.222Z,1.70
2022-11-19T12:13:35.693Z,2.83
2022-11-19T12:16:39.030Z,1.10
2022-11-19T12:19:21.100Z,2.13
2022-11-19T12:22:23.483Z,2.85
2022-11-19T12:24:55.957Z,3.75
2022-11-19T12:27:47.398Z,1.42
2022-11-19T12:30:23.022Z,3.00
2022-11-19T12:33:16.828Z,3.88
2022-11-19T12:36:02.087Z,3.50
2022-11-19T12:38:47.951Z,1.98
2022-11-19T12:41:51.642Z,1.52
2022-11-19T12:44:44.197Z,1.98
2022-11-19T12:47:20.009Z,5.75
2022-11-19T12:50:12.211Z,2.35
2022-11-19T12:53:06.368Z,2.13
2022-11-19T12:55:54.870Z,2.60
2022-11-19T12:58:40.409Z,2.88
2022-11-19T13:01:16.761Z,2.53
2022-11-19T13:03:48.335Z,0.95
2022-11-19T13:06:44.088Z,2.13
2022-11-19T13:12:07.764Z,1.30
2022-11-19T13:17:04.086Z,1.60
2022-11-19T13:19:34.508Z,2.85
2022-11-19T13:22:19.073Z,1.63
2022-11-19T13:24:50.084Z,1.30
2022-11-19T13:27:23.274Z,1.55
2022-11-19T13:30:03.534Z,2.35
2022-11-19T13:32:39.139Z,2.58
2022-11-19T13:35:21.353Z,1.67
2022-11-19T13:37:58.501Z,0.77
2022-11-19T13:40:35.113Z,1.00
2022-11-19T13:43:37.218Z,1.85
2022-11-19T13:46:08.360Z,3.58
2022-11-19T13:48:41.548Z,1.90
2022-11-19T13:51:21.027Z,2.67
2022-11-19T13:53:47.841Z,2.42
2022-11-19T13:56:17.543Z,3.65
2022-11-19T13:58:54.853Z,4.47
2022-11-19T14:01:40.508Z,1.83
2022-11-19T14:04:29.215Z,1.83
2022-11-19T14:07:37.853Z,2.05
2022-11-19T14:10:21.098Z,2.45
2022-11-19T14:12:57.419Z,2.22
2022-11-19T14:16:21.417Z,2.25
2022-11-19T14:19:30.027Z,3.47
2022-11-19T14:22:17.279Z,19.85
2022-11-19T14:25:02.758Z,3.15
2022-11-19T14:27:31.313Z,2.67
2022-11-19T14:30:06.539Z,3.80
2022-11-19T14:32:34.927Z,3.72
2022-11-19T14:35:01.514Z,4.47
2022-11-19T14:37:53.880Z,21.65
2022-11-19T14:40:33.700Z,2.85
2022-11-19T14:43:19.044Z,15.43
2022-11-19T14:46:04.029Z,6.65
2022-11-19T14:48:52.246Z,3.58
2022-11-19T14:51:31.731Z,3.13
2022-11-19T14:54:03.209Z,3.03
2022-11-19T14:56:31.591Z,2.70
2022-11-19T14:59:16.417Z,3.50
2022-11-19T15:02:26.918Z,11.18
2022-11-19T15:05:12.463Z,6.10
2022-11-19T15:07:45.568Z,6.80
2022-11-19T15:10:15.061Z,8.52
2022-11-19T15:12:45.018Z,9.98
2022-11-19T15:15:21.072Z,3.95
2022-11-19T15:17:59.158Z,2.70
2022-11-19T15:20:50.593Z,4.30
2022-11-19T15:23:32.001Z,6.60
2022-11-19T15:26:11.234Z,5.40
2022-11-19T15:28:59.601Z,10.07
2022-11-19T15:31:29.382Z,6.18
2022-11-19T15:34:21.501Z,7.43
2022-11-19T15:36:52.507Z,6.10
2022-11-19T15:39:22.575Z,9.25
2022-11-19T15:42:01.068Z,27.38
2022-11-19T15:44:36.727Z,13.85
2022-11-19T15:47:12.567Z,4.22
2022-11-19T15:49:40.684Z,4.50
2022-11-19T15:52:20.339Z,5.93
2022-11-19T15:54:47.040Z,9.30
2022-11-19T15:57:16.756Z,3.38
2022-11-19T15:59:51.370Z,11.70
2022-11-19T16:02:42.508Z,9.10
2022-11-19T16:05:35.296Z,11.90
2022-11-19T16:08:07.407Z,4.35
2022-11-19T16:10:39.697Z,5.65
2022-11-19T16:13:44.838Z,18.08
2022-11-19T16:16:39.716Z,62.38
2022-11-19T16:19:06.376Z,5.57
2022-11-19T16:21:40.185Z,4.47
2022-11-19T16:24:31.967Z,14.38
2022-11-19T16:27:00.256Z,13.80
2022-11-19T16:29:27.182Z,14.15
2022-11-19T16:31:57.899Z,10.85
2022-11-19T16:34:26.892Z,7.47
2022-11-19T16:36:54.691Z,8.45
2022-11-19T16:39:27.700Z,7.57
2022-11-19T16:42:19.752Z,9.48
2022-11-19T16:44:49.732Z,10.02
2022-11-19T16:47:38.891Z,4.13
2022-11-19T16:50:24.882Z,8.45
2022-11-19T16:52:51.625Z,4.38
2022-11-19T16:55:18.289Z,3.35
2022-11-19T16:57:53.307Z,4.68
2022-11-19T17:02:51.398Z,7.05
2022-11-19T17:05:22.074Z,24.77
2022-11-19T17:08:05.858Z,8.43
2022-11-19T17:10:36.302Z,9.55
2022-11-19T17:13:28.380Z,13.23
2022-11-19T17:15:55.308Z,7.00
2022-11-19T17:18:35.221Z,3.60
2022-11-19T17:21:25.918Z,5.60
2022-11-19T17:23:53.356Z,8.60
2022-11-19T17:26:25.672Z,6.57
2022-11-19T17:29:07.367Z,5.38
2022-11-19T17:31:34.091Z,5.28
2022-11-19T17:34:06.918Z,11.75
2022-11-19T17:36:33.641Z,31.02
2022-11-19T17:39:00.455Z,21.63
2022-11-19T17:41:47.612Z,15.88
2022-11-19T17:44:31.721Z,11.35
2022-11-19T17:46:59.574Z,37.47
2022-11-19T17:49:26.205Z,3.55
2022-11-19T17:51:53.074Z,5.85
2022-11-19T17:54:20.218Z,5.97
2022-11-19T17:56:47.523Z,7.13
2022-11-19T17:59:14.191Z,4.28
2022-11-19T18:01:41.351Z,4.43
2022-11-19T18:04:11.846Z,5.32
2022-11-19T18:06:38.875Z,6.75
2022-11-19T18:09:06.111Z,4.95
2022-11-19T18:11:32.977Z,4.57
2022-11-19T18:14:09.804Z,5.60
2022-11-19T18:16:42.783Z,8.00
2022-11-19T18:19:12.603Z,4.72
2022-11-19T18:21:42.190Z,14.13
2022-11-19T18:24:12.439Z,19.42
2022-11-19T18:26:39.305Z,20.40
2022-11-19T18:29:06.052Z,14.10
2022-11-19T18:31:32.762Z,11.98
2022-11-19T18:33:59.532Z,11.32
2022-11-19T18:36:26.335Z,9.07
2022-11-19T18:38:55.560Z,4.57
2022-11-19T18:41:22.424Z,3.65
2022-11-19T18:44:08.102Z,12.15
2022-11-19T18:49:25.611Z,5.60
2022-11-19T18:51:52.307Z,3.90
2022-11-19T18:54:19.117Z,3.47
2022-11-19T18:56:45.834Z,2.90
2022-11-19T18:59:13.422Z,2.85
2022-11-19T19:01:40.655Z,3.17
2022-11-19T19:04:09.057Z,3.90
2022-11-19T19:06:36.238Z,2.53
2022-11-19T19:09:03.226Z,2.30
2022-11-19T19:11:48.751Z,4.40
2022-11-19T19:14:15.688Z,4.05
2022-11-19T19:16:42.681Z,3.28
2022-11-19T19:19:16.104Z,11.13
2022-11-19T19:21:43.016Z,6.80
2022-11-19T19:24:09.899Z,6.13
2022-11-19T19:26:36.712Z,12.27
2022-11-19T19:29:05.649Z,6.60
2022-11-19T19:31:33.193Z,7.90
2022-11-19T19:33:59.893Z,5.78
2022-11-19T19:36:27.041Z,4.50
2022-11-19T19:38:53.916Z,7.25
2022-11-19T19:41:26.061Z,5.55
2022-11-19T19:43:54.260Z,6.78
2022-11-19T19:46:22.409Z,11.45
2022-11-19T19:48:53.824Z,9.93
2022-11-19T19:51:22.324Z,5.75
2022-11-19T19:53:49.101Z,7.13
2022-11-19T19:56:21.673Z,9.23
2022-11-19T19:58:50.896Z,20.13
2022-11-19T20:01:26.317Z,9.55
2022-11-19T20:03:54.975Z,10.20
2022-11-19T20:06:23.515Z,8.50
2022-11-19T20:08:50.676Z,9.13
2022-11-19T20:11:20.261Z,8.65
2022-11-19T20:13:47.703Z,12.93
2022-11-19T20:16:22.608Z,12.40
2022-11-19T20:18:50.849Z,20.88
2022-11-19T20:21:23.961Z,8.15
2022-11-19T20:23:50.948Z,6.70
2022-11-19T20:26:24.054Z,20.73
2022-11-19T20:28:59.141Z,21.17
2022-11-19T20:33:58.667Z,13.10
2022-11-19T20:36:28.164Z,10.07
2022-11-19T20:38:57.481Z,6.40
2022-11-19T20:41:43.816Z,5.00
2022-11-19T20:44:21.803Z,6.72
2022-11-19T20:47:07.247Z,2.75
2022-11-19T20:49:38.080Z,3.28
2022-11-19T20:52:05.368Z,3.85
2022-11-19T20:54:32.619Z,3.92
2022-11-19T20:57:00.458Z,3.67
2022-11-19T20:59:27.948Z,3.72
2022-11-19T21:01:56.572Z,2.58
2022-11-19T21:04:24.844Z,3.25
2022-11-19T21:06:51.903Z,2.40
2022-11-19T21:09:20.129Z,4.00
2022-11-19T21:11:47.792Z,4.13
2022-11-19T21:14:14.803Z,5.18
2022-11-19T21:16:41.552Z,4.07
2022-11-19T21:19:10.349Z,3.85
2022-11-19T21:21:37.610Z,3.58
2022-11-19T21:24:05.221Z,3.03
2022-11-19T21:26:31.869Z,3.92
2022-11-19T21:28:59.811Z,4.22
2022-11-19T21:31:39.359Z,3.38
2022-11-19T21:34:08.219Z,3.05
2022-11-19T21:36:35.202Z,2.70
2022-11-19T21:39:02.583Z,2.90
2022-11-19T21:41:29.283Z,2.83
2022-11-19T21:43:55.978Z,3.00
2022-11-19T21:46:22.827Z,2.92
2022-11-19T21:48:49.655Z,3.30
2022-11-19T21:51:21.449Z,2.75
2022-11-19T21:53:53.687Z,3.33
2022-11-19T21:56:20.303Z,3.58
2022-11-19T21:58:46.897Z,4.60
2022-11-19T22:01:13.740Z,4.93
2022-11-19T22:03:40.566Z,2.80
2022-11-19T22:06:09.589Z,3.25
2022-11-19T22:08:39.312Z,2.92
2022-11-19T22:11:26.813Z,3.30
2022-11-19T22:13:54.213Z,3.70
2022-11-19T22:16:21.842Z,4.35
2022-11-19T22:18:48.732Z,2.67
2022-11-19T22:21:16.069Z,3.03
2022-11-19T22:23:43.034Z,2.58
2022-11-19T22:26:11.588Z,2.08
2022-11-19T22:28:38.619Z,2.60
2022-11-19T22:31:05.799Z,3.67
2022-11-19T22:33:34.303Z,2.88
2022-11-19T22:36:08.032Z,3.28
2022-11-19T22:38:37.264Z,3.65
2022-11-19T22:41:08.448Z,2.80
2022-11-19T22:43:38.432Z,2.85
2022-11-19T22:46:06.527Z,10.93
2022-11-19T22:48:33.633Z,4.75
2022-11-19T22:51:05.922Z,4.20
2022-11-19T22:53:35.044Z,3.72
2022-11-19T22:56:02.909Z,4.97
2022-11-19T22:58:29.891Z,3.63
2022-11-19T23:00:56.853Z,9.90
2022-11-19T23:03:23.539Z,3.80
2022-11-19T23:05:54.079Z,2.85
2022-11-19T23:08:21.410Z,8.77
2022-11-19T23:10:48.708Z,4.28
2022-11-19T23:13:32.282Z,2.70
2022-11-19T23:16:12.789Z,4.88
2022-11-19T23:18:47.704Z,3.00
2022-11-19T23:21:17.867Z,2.53
2022-11-19T23:23:44.715Z,4.13
2022-11-19T23:26:13.097Z,9.43
2022-11-19T23:28:40.227Z,2.58
2022-11-19T23:31:13.499Z,4.60
2022-11-19T23:33:40.345Z,2.90
2022-11-19T23:36:19.559Z,8.25
2022-11-19T23:38:46.558Z,4.47
2022-11-19T23:41:15.105Z,2.60
2022-11-19T23:43:48.878Z,3.30
2022-11-19T23:46:24.299Z,5.13
2022-11-19T23:48:51.868Z,2.80
2022-11-19T23:51:22.651Z,3.67
2022-11-19T23:53:49.725Z,3.97
2022-11-19T23:56:17.838Z,3.70
2022-11-19T23:58:44.829Z,3.92
